YRDMP LRIA-LRPW
Flight info
| Callsign | YRDMP |
|---|---|
| Flight time | 1h 46m |
| Altitude | 8000 |
| Route | ABOLO T74 BCU Z650 REDKU DCT EBCOL |
| Aircraft | C172/L-SFG/C |
Departure
| Time | 2026-04-28 17:52 |
|---|---|
| Airport | Iaşi International Airport (LRIA) |
Arrival
| Time | 2026-04-28 19:39 |
|---|---|
| Airport | Ploiești-Strejnicu Airfield (LRPW) |
| Time | Latitude | Longitude | Altitude | Speed | Heading |
|---|---|---|---|---|---|
| 2026-04-28 17:04 | 47.17603 | 27.61911 | 365 ft | 0 kts | 274° |
| 2026-04-28 17:42 | 47.17603 | 27.61915 | 365 ft | 2 kts | 274° |
| 2026-04-28 17:42 | 47.17603 | 27.61931 | 365 ft | 2 kts | 270° |
| 2026-04-28 17:42 | 47.17604 | 27.61963 | 364 ft | 2 kts | 259° |
| 2026-04-28 17:42 | 47.17609 | 27.61986 | 364 ft | 2 kts | 236° |
| 2026-04-28 17:43 | 47.17623 | 27.61997 | 364 ft | 2 kts | 177° |
| 2026-04-28 17:43 | 47.17627 | 27.61996 | 364 ft | 0 kts | 163° |
| 2026-04-28 17:44 | 47.17613 | 27.62006 | 364 ft | 5 kts | 149° |
| 2026-04-28 17:44 | 47.17560 | 27.62046 | 362 ft | 12 kts | 155° |
| 2026-04-28 17:44 | 47.17472 | 27.62115 | 358 ft | 17 kts | 148° |
| 2026-04-28 17:44 | 47.17357 | 27.62218 | 353 ft | 22 kts | 148° |
| 2026-04-28 17:45 | 47.17257 | 27.62361 | 349 ft | 20 kts | 82° |
| 2026-04-28 17:45 | 47.17318 | 27.62521 | 348 ft | 17 kts | 59° |
| 2026-04-28 17:45 | 47.17378 | 27.62636 | 349 ft | 10 kts | 2° |
| 2026-04-28 17:45 | 47.17422 | 27.62627 | 353 ft | 0 kts | 327° |
| 2026-04-28 17:51 | 47.17540 | 27.62523 | 354 ft | 44 kts | 329° |
| 2026-04-28 17:51 | 47.17926 | 27.62181 | 370 ft | 83 kts | 329° |
| 2026-04-28 17:51 | 47.18492 | 27.61679 | 432 ft | 103 kts | 328° |
| 2026-04-28 17:52 | 47.19105 | 27.61184 | 674 ft | 99 kts | 335° |
| 2026-04-28 17:52 | 47.19733 | 27.60765 | 874 ft | 101 kts | 334° |
| 2026-04-28 17:52 | 47.20945 | 27.59854 | 1347 ft | 97 kts | 332° |
| 2026-04-28 17:53 | 47.21601 | 27.59359 | 1375 ft | 114 kts | 332° |
| 2026-04-28 17:53 | 47.22324 | 27.58808 | 1466 ft | 117 kts | 331° |
| 2026-04-28 17:53 | 47.23002 | 27.58276 | 1762 ft | 103 kts | 331° |
| 2026-04-28 17:53 | 47.23594 | 27.57782 | 2061 ft | 92 kts | 328° |
| 2026-04-28 17:54 | 47.23606 | 27.57203 | 2265 ft | 83 kts | 213° |
| 2026-04-28 17:54 | 47.22943 | 27.56941 | 2289 ft | 99 kts | 191° |
| 2026-04-28 17:54 | 47.22325 | 27.56771 | 2636 ft | 82 kts | 201° |
| 2026-04-28 17:54 | 47.21887 | 27.56333 | 2907 ft | 74 kts | 219° |
| 2026-04-28 17:55 | 47.21464 | 27.55904 | 3034 ft | 86 kts | 218° |
| 2026-04-28 17:55 | 47.20921 | 27.55333 | 3067 ft | 103 kts | 216° |
| 2026-04-28 17:55 | 47.20313 | 27.54690 | 3130 ft | 111 kts | 217° |
| 2026-04-28 17:55 | 47.19677 | 27.54012 | 3194 ft | 115 kts | 217° |
| 2026-04-28 17:56 | 47.19019 | 27.53314 | 3256 ft | 118 kts | 217° |
| 2026-04-28 17:56 | 47.18356 | 27.52611 | 3299 ft | 120 kts | 217° |
| 2026-04-28 17:56 | 47.17699 | 27.51917 | 3461 ft | 113 kts | 216° |
| 2026-04-28 17:56 | 47.17073 | 27.51258 | 3629 ft | 108 kts | 216° |
| 2026-04-28 17:57 | 47.16468 | 27.50621 | 3796 ft | 106 kts | 216° |
| 2026-04-28 17:57 | 47.15860 | 27.49979 | 3869 ft | 112 kts | 217° |
| 2026-04-28 17:57 | 47.15203 | 27.49281 | 3878 ft | 119 kts | 217° |
| 2026-04-28 17:57 | 47.14519 | 27.48556 | 3882 ft | 123 kts | 217° |
| 2026-04-28 17:58 | 47.13828 | 27.47824 | 3881 ft | 124 kts | 217° |
| 2026-04-28 17:58 | 47.13124 | 27.47080 | 3882 ft | 125 kts | 217° |
| 2026-04-28 17:58 | 47.12418 | 27.46334 | 3881 ft | 125 kts | 216° |
| 2026-04-28 17:58 | 47.11709 | 27.45587 | 3881 ft | 125 kts | 217° |
| 2026-04-28 17:59 | 47.11000 | 27.44840 | 3880 ft | 126 kts | 217° |
| 2026-04-28 17:59 | 47.10291 | 27.44093 | 3880 ft | 125 kts | 217° |
| 2026-04-28 17:59 | 47.09821 | 27.43597 | 3881 ft | 125 kts | 216° |
| 2026-04-28 17:59 | 47.08881 | 27.42608 | 3881 ft | 125 kts | 216° |
| 2026-04-28 18:00 | 47.08172 | 27.41861 | 3881 ft | 125 kts | 216° |
| 2026-04-28 18:00 | 47.07701 | 27.41366 | 3881 ft | 125 kts | 217° |
| 2026-04-28 18:00 | 47.07013 | 27.40637 | 3875 ft | 115 kts | 217° |
| 2026-04-28 18:00 | 47.06396 | 27.39986 | 3863 ft | 104 kts | 217° |
| 2026-04-28 18:01 | 47.05824 | 27.39386 | 3861 ft | 97 kts | 216° |
| 2026-04-28 18:01 | 47.05285 | 27.38822 | 3863 ft | 93 kts | 216° |
| 2026-04-28 18:01 | 47.04768 | 27.38281 | 3862 ft | 89 kts | 216° |
| 2026-04-28 18:01 | 47.04266 | 27.37755 | 3864 ft | 88 kts | 216° |
| 2026-04-28 18:02 | 47.03772 | 27.37238 | 3862 ft | 87 kts | 217° |
| 2026-04-28 18:02 | 47.03284 | 27.36727 | 3865 ft | 85 kts | 216° |
| 2026-04-28 18:02 | 47.02808 | 27.36228 | 3863 ft | 84 kts | 217° |
| 2026-04-28 18:02 | 47.02334 | 27.35732 | 3865 ft | 84 kts | 217° |
| 2026-04-28 18:03 | 47.01855 | 27.35229 | 3863 ft | 85 kts | 217° |
| 2026-04-28 18:03 | 47.01375 | 27.34726 | 3863 ft | 85 kts | 217° |
| 2026-04-28 18:03 | 47.00897 | 27.34224 | 3862 ft | 84 kts | 217° |
| 2026-04-28 18:03 | 47.00425 | 27.33729 | 3862 ft | 84 kts | 217° |
| 2026-04-28 18:04 | 46.99939 | 27.33239 | 3863 ft | 84 kts | 209° |
| 2026-04-28 18:04 | 46.99418 | 27.32861 | 3862 ft | 83 kts | 208° |
| 2026-04-28 18:04 | 46.98901 | 27.32476 | 3863 ft | 83 kts | 208° |
| 2026-04-28 18:04 | 46.98386 | 27.32093 | 3864 ft | 83 kts | 208° |
| 2026-04-28 18:05 | 46.97870 | 27.31709 | 3862 ft | 83 kts | 208° |
| 2026-04-28 18:05 | 46.97530 | 27.31456 | 3863 ft | 82 kts | 208° |
| 2026-04-28 18:05 | 46.96846 | 27.30949 | 3865 ft | 83 kts | 208° |
| 2026-04-28 18:05 | 46.96314 | 27.30556 | 3873 ft | 89 kts | 208° |
| 2026-04-28 18:06 | 46.95739 | 27.30129 | 3882 ft | 96 kts | 208° |
| 2026-04-28 18:06 | 46.95131 | 27.29675 | 3884 ft | 102 kts | 208° |
| 2026-04-28 18:06 | 46.94488 | 27.29197 | 3882 ft | 105 kts | 208° |
| 2026-04-28 18:06 | 46.93829 | 27.28707 | 3881 ft | 107 kts | 208° |
| 2026-04-28 18:07 | 46.93165 | 27.28214 | 3880 ft | 108 kts | 208° |
| 2026-04-28 18:07 | 46.92495 | 27.27716 | 3881 ft | 108 kts | 208° |
| 2026-04-28 18:07 | 46.91823 | 27.27218 | 3882 ft | 108 kts | 208° |
| 2026-04-28 18:07 | 46.91149 | 27.26718 | 3881 ft | 108 kts | 208° |
| 2026-04-28 18:08 | 46.90472 | 27.26217 | 3881 ft | 109 kts | 208° |
| 2026-04-28 18:08 | 46.89796 | 27.25715 | 3880 ft | 109 kts | 208° |
| 2026-04-28 18:08 | 46.89127 | 27.25219 | 3882 ft | 109 kts | 208° |
| 2026-04-28 18:08 | 46.88445 | 27.24715 | 3881 ft | 110 kts | 208° |
| 2026-04-28 18:09 | 46.87761 | 27.24209 | 3880 ft | 110 kts | 208° |
| 2026-04-28 18:09 | 46.87080 | 27.23705 | 3880 ft | 110 kts | 208° |
| 2026-04-28 18:09 | 46.86401 | 27.23202 | 3880 ft | 109 kts | 208° |
| 2026-04-28 18:09 | 46.85722 | 27.22700 | 3880 ft | 109 kts | 208° |
| 2026-04-28 18:10 | 46.85040 | 27.22197 | 3879 ft | 109 kts | 208° |
| 2026-04-28 18:10 | 46.84360 | 27.21694 | 3880 ft | 109 kts | 208° |
| 2026-04-28 18:10 | 46.83681 | 27.21192 | 3880 ft | 109 kts | 208° |
| 2026-04-28 18:10 | 46.83002 | 27.20691 | 3880 ft | 109 kts | 208° |
| 2026-04-28 18:11 | 46.82330 | 27.20194 | 3880 ft | 110 kts | 208° |
| 2026-04-28 18:11 | 46.81649 | 27.19692 | 3880 ft | 110 kts | 208° |
| 2026-04-28 18:11 | 46.80969 | 27.19190 | 3880 ft | 109 kts | 208° |
| 2026-04-28 18:11 | 46.80289 | 27.18689 | 3880 ft | 109 kts | 208° |
| 2026-04-28 18:12 | 46.79610 | 27.18188 | 3879 ft | 109 kts | 208° |
| 2026-04-28 18:12 | 46.78934 | 27.17689 | 3877 ft | 108 kts | 208° |
| 2026-04-28 18:12 | 46.78259 | 27.17193 | 3879 ft | 109 kts | 208° |
| 2026-04-28 18:12 | 46.77579 | 27.16691 | 3879 ft | 110 kts | 208° |
| 2026-04-28 18:13 | 46.76899 | 27.16190 | 3880 ft | 109 kts | 208° |
| 2026-04-28 18:13 | 46.76221 | 27.15691 | 3880 ft | 109 kts | 208° |
| 2026-04-28 18:13 | 46.75550 | 27.15196 | 3880 ft | 109 kts | 208° |
| 2026-04-28 18:13 | 46.74871 | 27.14697 | 3880 ft | 109 kts | 208° |
| 2026-04-28 18:14 | 46.74193 | 27.14198 | 3880 ft | 109 kts | 208° |
| 2026-04-28 18:14 | 46.73512 | 27.13697 | 3880 ft | 109 kts | 208° |
| 2026-04-28 18:14 | 46.72829 | 27.13195 | 3881 ft | 110 kts | 208° |
| 2026-04-28 18:14 | 46.72148 | 27.12694 | 3881 ft | 110 kts | 208° |
| 2026-04-28 18:15 | 46.71466 | 27.12193 | 3882 ft | 109 kts | 208° |
| 2026-04-28 18:15 | 46.70779 | 27.11688 | 3853 ft | 112 kts | 208° |
| 2026-04-28 18:15 | 46.70095 | 27.11185 | 3851 ft | 111 kts | 208° |
| 2026-04-28 18:15 | 46.69412 | 27.10683 | 3886 ft | 107 kts | 208° |
| 2026-04-28 18:16 | 46.68772 | 27.10217 | 3986 ft | 100 kts | 207° |
| 2026-04-28 18:16 | 46.68159 | 27.09709 | 3995 ft | 102 kts | 225° |
| 2026-04-28 18:16 | 46.67688 | 27.08914 | 3999 ft | 105 kts | 229° |
| 2026-04-28 18:16 | 46.67197 | 27.08114 | 4001 ft | 106 kts | 229° |
| 2026-04-28 18:17 | 46.66701 | 27.07314 | 4006 ft | 107 kts | 228° |
| 2026-04-28 18:17 | 46.66205 | 27.06519 | 4008 ft | 108 kts | 228° |
| 2026-04-28 18:17 | 46.65694 | 27.05703 | 4011 ft | 108 kts | 228° |
| 2026-04-28 18:17 | 46.65192 | 27.04902 | 4001 ft | 108 kts | 228° |
| 2026-04-28 18:18 | 46.64680 | 27.04088 | 4009 ft | 109 kts | 228° |
| 2026-04-28 18:18 | 46.64169 | 27.03274 | 4008 ft | 109 kts | 228° |
| 2026-04-28 18:18 | 46.63655 | 27.02458 | 4010 ft | 109 kts | 228° |
| 2026-04-28 18:18 | 46.63316 | 27.01919 | 4010 ft | 109 kts | 228° |
| 2026-04-28 18:19 | 46.62630 | 27.00829 | 4010 ft | 109 kts | 228° |
| 2026-04-28 18:19 | 46.62118 | 27.00016 | 4011 ft | 109 kts | 228° |
| 2026-04-28 18:19 | 46.61606 | 26.99201 | 4011 ft | 109 kts | 228° |
| 2026-04-28 18:19 | 46.61099 | 26.98397 | 4007 ft | 109 kts | 228° |
| 2026-04-28 18:20 | 46.60586 | 26.97583 | 4010 ft | 109 kts | 228° |
| 2026-04-28 18:20 | 46.60074 | 26.96771 | 4010 ft | 109 kts | 228° |
| 2026-04-28 18:20 | 46.59561 | 26.95957 | 4007 ft | 109 kts | 228° |
| 2026-04-28 18:20 | 46.59049 | 26.95145 | 4010 ft | 109 kts | 228° |
| 2026-04-28 18:21 | 46.58536 | 26.94332 | 4010 ft | 109 kts | 228° |
| 2026-04-28 18:21 | 46.58023 | 26.93520 | 4006 ft | 109 kts | 228° |
| 2026-04-28 18:21 | 46.57511 | 26.92708 | 4010 ft | 109 kts | 228° |
| 2026-04-28 18:21 | 46.56999 | 26.91898 | 4010 ft | 109 kts | 228° |
| 2026-04-28 18:22 | 46.56486 | 26.91086 | 4009 ft | 109 kts | 228° |
| 2026-04-28 18:22 | 46.55974 | 26.90276 | 4009 ft | 109 kts | 228° |
| 2026-04-28 18:22 | 46.55468 | 26.89475 | 4009 ft | 109 kts | 228° |
| 2026-04-28 18:22 | 46.54956 | 26.88665 | 4010 ft | 109 kts | 228° |
| 2026-04-28 18:23 | 46.54444 | 26.87854 | 4006 ft | 109 kts | 228° |
| 2026-04-28 18:23 | 46.53931 | 26.87044 | 4010 ft | 109 kts | 228° |
| 2026-04-28 18:23 | 46.53419 | 26.86235 | 4107 ft | 108 kts | 231° |
| 2026-04-28 18:23 | 46.52914 | 26.85440 | 4150 ft | 107 kts | 230° |
| 2026-04-28 18:24 | 46.52405 | 26.84636 | 4152 ft | 109 kts | 230° |
| 2026-04-28 18:24 | 46.52067 | 26.84101 | 4150 ft | 108 kts | 230° |
| 2026-04-28 18:24 | 46.51373 | 26.83004 | 4155 ft | 111 kts | 231° |
| 2026-04-28 18:24 | 46.50851 | 26.82180 | 4159 ft | 111 kts | 231° |
| 2026-04-28 18:25 | 46.50327 | 26.81354 | 4157 ft | 111 kts | 231° |
| 2026-04-28 18:25 | 46.49989 | 26.80408 | 4162 ft | 106 kts | 272° |
| 2026-04-28 18:25 | 46.50048 | 26.79357 | 4164 ft | 107 kts | 275° |
| 2026-04-28 18:26 | 46.50119 | 26.77195 | 4165 ft | 107 kts | 275° |
| 2026-04-28 18:26 | 46.50150 | 26.76118 | 4164 ft | 107 kts | 274° |
| 2026-04-28 18:26 | 46.50178 | 26.75041 | 4165 ft | 107 kts | 274° |
| 2026-04-28 18:26 | 46.50206 | 26.73964 | 4166 ft | 106 kts | 274° |
| 2026-04-28 18:27 | 46.50232 | 26.72898 | 4165 ft | 106 kts | 274° |
| 2026-04-28 18:27 | 46.50259 | 26.71829 | 4168 ft | 107 kts | 274° |
| 2026-04-28 18:27 | 46.50286 | 26.70748 | 4169 ft | 107 kts | 274° |
| 2026-04-28 18:27 | 46.50313 | 26.69667 | 4168 ft | 107 kts | 274° |
| 2026-04-28 18:28 | 46.50339 | 26.68595 | 4169 ft | 106 kts | 274° |
| 2026-04-28 18:28 | 46.50365 | 26.67536 | 4170 ft | 107 kts | 274° |
| 2026-04-28 18:28 | 46.50391 | 26.66448 | 4168 ft | 107 kts | 274° |
| 2026-04-28 18:28 | 46.50417 | 26.65390 | 4168 ft | 106 kts | 274° |
| 2026-04-28 18:29 | 46.50442 | 26.64326 | 4170 ft | 105 kts | 274° |
| 2026-04-28 18:29 | 46.50468 | 26.63259 | 4167 ft | 106 kts | 274° |
| 2026-04-28 18:29 | 46.50494 | 26.62187 | 4167 ft | 106 kts | 274° |
| 2026-04-28 18:29 | 46.50519 | 26.61117 | 4169 ft | 106 kts | 274° |
| 2026-04-28 18:30 | 46.50545 | 26.60045 | 4173 ft | 107 kts | 274° |
| 2026-04-28 18:30 | 46.50554 | 26.59680 | 4174 ft | 107 kts | 274° |
| 2026-04-28 18:30 | 46.50596 | 26.57886 | 4175 ft | 107 kts | 274° |
| 2026-04-28 18:30 | 46.50622 | 26.56798 | 4182 ft | 108 kts | 274° |
| 2026-04-28 18:31 | 46.50647 | 26.55713 | 4181 ft | 107 kts | 274° |
| 2026-04-28 18:31 | 46.50672 | 26.54632 | 4181 ft | 107 kts | 274° |
| 2026-04-28 18:31 | 46.50697 | 26.53555 | 4178 ft | 106 kts | 274° |
| 2026-04-28 18:31 | 46.50722 | 26.52485 | 4178 ft | 105 kts | 274° |
| 2026-04-28 18:32 | 46.50746 | 26.51424 | 4179 ft | 105 kts | 274° |
| 2026-04-28 18:32 | 46.50769 | 26.50377 | 4173 ft | 102 kts | 274° |
| 2026-04-28 18:32 | 46.50792 | 26.49357 | 4174 ft | 103 kts | 274° |
| 2026-04-28 18:32 | 46.50817 | 26.48296 | 4132 ft | 109 kts | 274° |
| 2026-04-28 18:33 | 46.50708 | 26.47176 | 4012 ft | 118 kts | 242° |
| 2026-04-28 18:33 | 46.50136 | 26.46347 | 4013 ft | 115 kts | 224° |
| 2026-04-28 18:33 | 46.49529 | 26.45591 | 4005 ft | 114 kts | 225° |
| 2026-04-28 18:33 | 46.48938 | 26.44847 | 4003 ft | 111 kts | 225° |
| 2026-04-28 18:34 | 46.48358 | 26.44114 | 3989 ft | 109 kts | 225° |
| 2026-04-28 18:34 | 46.47799 | 26.43407 | 3994 ft | 106 kts | 225° |
| 2026-04-28 18:34 | 46.47249 | 26.42713 | 4000 ft | 101 kts | 225° |
| 2026-04-28 18:34 | 46.46714 | 26.42036 | 3999 ft | 104 kts | 225° |
| 2026-04-28 18:35 | 46.46171 | 26.41343 | 4004 ft | 105 kts | 226° |
| 2026-04-28 18:35 | 46.45613 | 26.40630 | 4012 ft | 111 kts | 225° |
| 2026-04-28 18:35 | 46.45026 | 26.39882 | 4014 ft | 113 kts | 226° |
| 2026-04-28 18:35 | 46.44437 | 26.39135 | 4013 ft | 112 kts | 226° |
| 2026-04-28 18:36 | 46.43857 | 26.38400 | 4014 ft | 110 kts | 226° |
| 2026-04-28 18:36 | 46.43280 | 26.37670 | 4012 ft | 110 kts | 226° |
| 2026-04-28 18:36 | 46.42702 | 26.36938 | 4016 ft | 111 kts | 226° |
| 2026-04-28 18:36 | 46.42117 | 26.36194 | 4012 ft | 112 kts | 226° |
| 2026-04-28 18:37 | 46.41539 | 26.35465 | 4012 ft | 110 kts | 225° |
| 2026-04-28 18:37 | 46.40950 | 26.34716 | 4018 ft | 114 kts | 225° |
| 2026-04-28 18:37 | 46.40361 | 26.33969 | 4017 ft | 114 kts | 225° |
| 2026-04-28 18:37 | 46.39757 | 26.33200 | 4006 ft | 115 kts | 225° |
| 2026-04-28 18:38 | 46.39169 | 26.32464 | 4004 ft | 109 kts | 226° |
| 2026-04-28 18:38 | 46.38595 | 26.31730 | 4005 ft | 111 kts | 226° |
| 2026-04-28 18:38 | 46.38008 | 26.30989 | 3998 ft | 112 kts | 225° |
| 2026-04-28 18:38 | 46.37425 | 26.30255 | 4051 ft | 107 kts | 226° |
| 2026-04-28 18:39 | 46.36892 | 26.29589 | 4213 ft | 94 kts | 226° |
| 2026-04-28 18:39 | 46.36431 | 26.29015 | 4381 ft | 81 kts | 227° |
| 2026-04-28 18:39 | 46.36040 | 26.28532 | 4494 ft | 66 kts | 232° |
| 2026-04-28 18:39 | 46.35698 | 26.28110 | 4536 ft | 64 kts | 232° |
| 2026-04-28 18:40 | 46.35363 | 26.27684 | 4619 ft | 61 kts | 231° |
| 2026-04-28 18:40 | 46.35037 | 26.27268 | 4536 ft | 64 kts | 231° |
| 2026-04-28 18:40 | 46.34726 | 26.26877 | 4373 ft | 68 kts | 231° |
| 2026-04-28 18:40 | 46.34385 | 26.26446 | 4477 ft | 70 kts | 231° |
| 2026-04-28 18:41 | 46.34004 | 26.25959 | 4663 ft | 77 kts | 231° |
| 2026-04-28 18:41 | 46.33571 | 26.25406 | 4846 ft | 89 kts | 230° |
| 2026-04-28 18:41 | 46.33085 | 26.24789 | 5024 ft | 97 kts | 230° |
| 2026-04-28 18:41 | 46.32555 | 26.24115 | 5041 ft | 103 kts | 229° |
| 2026-04-28 18:42 | 46.31965 | 26.23357 | 5022 ft | 122 kts | 229° |
| 2026-04-28 18:42 | 46.31313 | 26.22531 | 5017 ft | 126 kts | 228° |
| 2026-04-28 18:42 | 46.30658 | 26.21708 | 5011 ft | 121 kts | 227° |
| 2026-04-28 18:42 | 46.30055 | 26.20952 | 5005 ft | 110 kts | 229° |
| 2026-04-28 18:43 | 46.29493 | 26.20251 | 4989 ft | 104 kts | 229° |
| 2026-04-28 18:43 | 46.28952 | 26.19569 | 4993 ft | 103 kts | 229° |
| 2026-04-28 18:43 | 46.28410 | 26.18887 | 4985 ft | 103 kts | 230° |
| 2026-04-28 18:43 | 46.27883 | 26.18233 | 4992 ft | 98 kts | 229° |
| 2026-04-28 18:44 | 46.27540 | 26.17803 | 4999 ft | 100 kts | 230° |
| 2026-04-28 18:44 | 46.26242 | 26.16152 | 5002 ft | 111 kts | 230° |
| 2026-04-28 18:44 | 46.25652 | 26.15406 | 5008 ft | 115 kts | 229° |
| 2026-04-28 18:45 | 46.25053 | 26.14657 | 5005 ft | 113 kts | 229° |
| 2026-04-28 18:45 | 46.24655 | 26.14159 | 4998 ft | 110 kts | 229° |
| 2026-04-28 18:45 | 46.24092 | 26.13456 | 4997 ft | 105 kts | 229° |
| 2026-04-28 18:45 | 46.23531 | 26.12751 | 4994 ft | 108 kts | 229° |
| 2026-04-28 18:46 | 46.22953 | 26.12022 | 5001 ft | 112 kts | 229° |
| 2026-04-28 18:46 | 46.22366 | 26.11285 | 5002 ft | 112 kts | 229° |
| 2026-04-28 18:46 | 46.21776 | 26.10544 | 5001 ft | 111 kts | 229° |
| 2026-04-28 18:46 | 46.21197 | 26.09820 | 5000 ft | 109 kts | 229° |
| 2026-04-28 18:47 | 46.20621 | 26.09098 | 4996 ft | 110 kts | 229° |
| 2026-04-28 18:47 | 46.20045 | 26.08376 | 4995 ft | 109 kts | 229° |
| 2026-04-28 18:47 | 46.19479 | 26.07668 | 4993 ft | 108 kts | 229° |
| 2026-04-28 18:47 | 46.18913 | 26.06960 | 4987 ft | 107 kts | 229° |
| 2026-04-28 18:48 | 46.18357 | 26.06266 | 4983 ft | 102 kts | 229° |
| 2026-04-28 18:48 | 46.17820 | 26.05595 | 4983 ft | 102 kts | 230° |
| 2026-04-28 18:48 | 46.17278 | 26.04913 | 4991 ft | 105 kts | 229° |
| 2026-04-28 18:48 | 46.16720 | 26.04213 | 4990 ft | 107 kts | 229° |
| 2026-04-28 18:49 | 46.16165 | 26.03520 | 4987 ft | 104 kts | 229° |
| 2026-04-28 18:49 | 46.15802 | 26.03068 | 4988 ft | 105 kts | 230° |
| 2026-04-28 18:49 | 46.15062 | 26.02141 | 4992 ft | 107 kts | 229° |
| 2026-04-28 18:49 | 46.14492 | 26.01423 | 4995 ft | 113 kts | 229° |
| 2026-04-28 18:50 | 46.13913 | 26.00703 | 4987 ft | 107 kts | 229° |
| 2026-04-28 18:50 | 46.13346 | 25.99995 | 4992 ft | 109 kts | 230° |
| 2026-04-28 18:50 | 46.12762 | 25.99262 | 4995 ft | 113 kts | 229° |
| 2026-04-28 18:50 | 46.12172 | 25.98526 | 4995 ft | 111 kts | 229° |
| 2026-04-28 18:51 | 46.11587 | 25.97791 | 4975 ft | 110 kts | 229° |
| 2026-04-28 18:51 | 46.11013 | 25.97082 | 4979 ft | 109 kts | 229° |
| 2026-04-28 18:51 | 46.10433 | 25.96359 | 4977 ft | 111 kts | 230° |
| 2026-04-28 18:51 | 46.09861 | 25.95647 | 4983 ft | 107 kts | 230° |
| 2026-04-28 18:52 | 46.09293 | 25.94938 | 4974 ft | 109 kts | 229° |
| 2026-04-28 18:52 | 46.08747 | 25.94263 | 4970 ft | 99 kts | 230° |
| 2026-04-28 18:52 | 46.08253 | 25.93656 | 4967 ft | 85 kts | 230° |
| 2026-04-28 18:52 | 46.07844 | 25.93160 | 4973 ft | 77 kts | 233° |
| 2026-04-28 18:53 | 46.07424 | 25.92626 | 4977 ft | 82 kts | 232° |
| 2026-04-28 18:53 | 46.06964 | 25.92041 | 4990 ft | 95 kts | 232° |
| 2026-04-28 18:53 | 46.06436 | 25.91377 | 4995 ft | 104 kts | 230° |
| 2026-04-28 18:53 | 46.05866 | 25.90661 | 4988 ft | 112 kts | 230° |
| 2026-04-28 18:54 | 46.05276 | 25.89930 | 4988 ft | 112 kts | 229° |
| 2026-04-28 18:54 | 46.04690 | 25.89202 | 4981 ft | 111 kts | 229° |
| 2026-04-28 18:54 | 46.04101 | 25.88466 | 4988 ft | 114 kts | 229° |
| 2026-04-28 18:54 | 46.03499 | 25.87718 | 4979 ft | 115 kts | 228° |
| 2026-04-28 18:55 | 46.02891 | 25.86962 | 4976 ft | 114 kts | 227° |
| 2026-04-28 18:55 | 46.02499 | 25.86478 | 4977 ft | 111 kts | 228° |
| 2026-04-28 18:55 | 46.01716 | 25.85506 | 4961 ft | 109 kts | 229° |
| 2026-04-28 18:55 | 46.01148 | 25.84805 | 4968 ft | 107 kts | 228° |
| 2026-04-28 18:56 | 46.00581 | 25.84099 | 4967 ft | 108 kts | 228° |
| 2026-04-28 18:56 | 46.00013 | 25.83392 | 4959 ft | 107 kts | 227° |
| 2026-04-28 18:56 | 45.99450 | 25.82696 | 4965 ft | 106 kts | 228° |
| 2026-04-28 18:56 | 45.98898 | 25.82012 | 4969 ft | 106 kts | 227° |
| 2026-04-28 18:57 | 45.98337 | 25.81316 | 4962 ft | 106 kts | 227° |
| 2026-04-28 18:57 | 45.97776 | 25.80620 | 4961 ft | 106 kts | 227° |
| 2026-04-28 18:57 | 45.97218 | 25.79932 | 4957 ft | 104 kts | 227° |
| 2026-04-28 18:57 | 45.96534 | 25.79540 | 4957 ft | 112 kts | 188° |
| 2026-04-28 18:58 | 45.95754 | 25.79661 | 4955 ft | 112 kts | 181° |
| 2026-04-28 18:58 | 45.94980 | 25.79787 | 4958 ft | 112 kts | 181° |
| 2026-04-28 18:58 | 45.94208 | 25.79913 | 4955 ft | 112 kts | 179° |
| 2026-04-28 18:58 | 45.93430 | 25.80040 | 4953 ft | 112 kts | 179° |
| 2026-04-28 18:59 | 45.92662 | 25.80166 | 4958 ft | 113 kts | 180° |
| 2026-04-28 18:59 | 45.91884 | 25.80294 | 4956 ft | 113 kts | 180° |
| 2026-04-28 18:59 | 45.91100 | 25.80423 | 4959 ft | 113 kts | 180° |
| 2026-04-28 18:59 | 45.90316 | 25.80551 | 4958 ft | 114 kts | 180° |
| 2026-04-28 19:00 | 45.89527 | 25.80680 | 4958 ft | 114 kts | 180° |
| 2026-04-28 19:00 | 45.88739 | 25.80809 | 4958 ft | 114 kts | 180° |
| 2026-04-28 19:00 | 45.87949 | 25.80939 | 4955 ft | 114 kts | 180° |
| 2026-04-28 19:00 | 45.87166 | 25.81066 | 4962 ft | 115 kts | 180° |
| 2026-04-28 19:01 | 45.86374 | 25.81196 | 4961 ft | 114 kts | 180° |
| 2026-04-28 19:01 | 45.85586 | 25.81326 | 4957 ft | 114 kts | 180° |
| 2026-04-28 19:01 | 45.84799 | 25.81454 | 4961 ft | 114 kts | 180° |
| 2026-04-28 19:01 | 45.84011 | 25.81583 | 4957 ft | 114 kts | 180° |
| 2026-04-28 19:02 | 45.83222 | 25.81712 | 4961 ft | 114 kts | 180° |
| 2026-04-28 19:02 | 45.82434 | 25.81841 | 4960 ft | 114 kts | 180° |
| 2026-04-28 19:02 | 45.81646 | 25.81970 | 4959 ft | 114 kts | 179° |
| 2026-04-28 19:02 | 45.80855 | 25.82099 | 4962 ft | 114 kts | 179° |
| 2026-04-28 19:03 | 45.80065 | 25.82228 | 4960 ft | 114 kts | 179° |
| 2026-04-28 19:03 | 45.79288 | 25.82355 | 4963 ft | 114 kts | 179° |
| 2026-04-28 19:03 | 45.78504 | 25.82481 | 4972 ft | 114 kts | 176° |
| 2026-04-28 19:03 | 45.77722 | 25.82610 | 4974 ft | 112 kts | 175° |
| 2026-04-28 19:04 | 45.76943 | 25.82737 | 4971 ft | 112 kts | 175° |
| 2026-04-28 19:04 | 45.76170 | 25.82863 | 4966 ft | 112 kts | 176° |
| 2026-04-28 19:04 | 45.75395 | 25.82990 | 4966 ft | 111 kts | 175° |
| 2026-04-28 19:04 | 45.74633 | 25.83114 | 4969 ft | 112 kts | 175° |
| 2026-04-28 19:05 | 45.73864 | 25.83240 | 4969 ft | 111 kts | 176° |
| 2026-04-28 19:05 | 45.73092 | 25.83366 | 4965 ft | 111 kts | 176° |
| 2026-04-28 19:05 | 45.72321 | 25.83491 | 4963 ft | 111 kts | 175° |
| 2026-04-28 19:05 | 45.71552 | 25.83617 | 4966 ft | 111 kts | 175° |
| 2026-04-28 19:06 | 45.70784 | 25.83742 | 4965 ft | 111 kts | 175° |
| 2026-04-28 19:06 | 45.70275 | 25.83825 | 4963 ft | 111 kts | 175° |
| 2026-04-28 19:06 | 45.69247 | 25.83993 | 4965 ft | 111 kts | 175° |
| 2026-04-28 19:06 | 45.68475 | 25.84118 | 4966 ft | 112 kts | 175° |
| 2026-04-28 19:07 | 45.67700 | 25.84243 | 4970 ft | 112 kts | 175° |
| 2026-04-28 19:07 | 45.66937 | 25.84368 | 4972 ft | 112 kts | 175° |
| 2026-04-28 19:07 | 45.66162 | 25.84493 | 4968 ft | 112 kts | 175° |
| 2026-04-28 19:07 | 45.65387 | 25.84619 | 4971 ft | 112 kts | 175° |
| 2026-04-28 19:08 | 45.64616 | 25.84744 | 4973 ft | 111 kts | 175° |
| 2026-04-28 19:08 | 45.63844 | 25.84870 | 4972 ft | 112 kts | 175° |
| 2026-04-28 19:08 | 45.63071 | 25.84995 | 4971 ft | 112 kts | 175° |
| 2026-04-28 19:08 | 45.62294 | 25.85122 | 4976 ft | 112 kts | 175° |
| 2026-04-28 19:09 | 45.61524 | 25.85246 | 4974 ft | 112 kts | 175° |
| 2026-04-28 19:09 | 45.60747 | 25.85372 | 4975 ft | 112 kts | 175° |
| 2026-04-28 19:09 | 45.59966 | 25.85498 | 4972 ft | 113 kts | 175° |
| 2026-04-28 19:09 | 45.59187 | 25.85625 | 4968 ft | 113 kts | 175° |
| 2026-04-28 19:10 | 45.58411 | 25.85752 | 4972 ft | 112 kts | 175° |
| 2026-04-28 19:10 | 45.57635 | 25.85877 | 4971 ft | 112 kts | 175° |
| 2026-04-28 19:10 | 45.56865 | 25.86002 | 4968 ft | 111 kts | 175° |
| 2026-04-28 19:10 | 45.56100 | 25.86126 | 4967 ft | 110 kts | 175° |
| 2026-04-28 19:11 | 45.55334 | 25.86250 | 4974 ft | 110 kts | 175° |
| 2026-04-28 19:11 | 45.54573 | 25.86374 | 4968 ft | 110 kts | 175° |
| 2026-04-28 19:11 | 45.53823 | 25.86495 | 4969 ft | 110 kts | 175° |
| 2026-04-28 19:11 | 45.53057 | 25.86619 | 4970 ft | 111 kts | 175° |
| 2026-04-28 19:12 | 45.52289 | 25.86743 | 4977 ft | 111 kts | 175° |
| 2026-04-28 19:12 | 45.51517 | 25.86868 | 4971 ft | 112 kts | 175° |
| 2026-04-28 19:12 | 45.50745 | 25.86993 | 4971 ft | 111 kts | 175° |
| 2026-04-28 19:12 | 45.49976 | 25.87117 | 4975 ft | 111 kts | 175° |
| 2026-04-28 19:13 | 45.49206 | 25.87241 | 4979 ft | 112 kts | 175° |
| 2026-04-28 19:13 | 45.48435 | 25.87365 | 4978 ft | 111 kts | 175° |
| 2026-04-28 19:13 | 45.47714 | 25.87482 | 4976 ft | 110 kts | 175° |
| 2026-04-28 19:13 | 45.46956 | 25.87605 | 4974 ft | 110 kts | 175° |
| 2026-04-28 19:14 | 45.46198 | 25.87727 | 4973 ft | 109 kts | 174° |
| 2026-04-28 19:14 | 45.45431 | 25.87853 | 4990 ft | 113 kts | 174° |
| 2026-04-28 19:14 | 45.44658 | 25.87982 | 5124 ft | 110 kts | 177° |
| 2026-04-28 19:14 | 45.43916 | 25.88111 | 5347 ft | 103 kts | 176° |
| 2026-04-28 19:15 | 45.43297 | 25.88231 | 5607 ft | 91 kts | 183° |
| 2026-04-28 19:15 | 45.42638 | 25.88276 | 5698 ft | 102 kts | 177° |
| 2026-04-28 19:15 | 45.41887 | 25.88401 | 5763 ft | 117 kts | 176° |
| 2026-04-28 19:15 | 45.41331 | 25.88497 | 5740 ft | 121 kts | 176° |
| 2026-04-28 19:16 | 45.40193 | 25.88692 | 5672 ft | 131 kts | 175° |
| 2026-04-28 19:16 | 45.39264 | 25.88840 | 5605 ft | 135 kts | 176° |
| 2026-04-28 19:16 | 45.38330 | 25.88991 | 5514 ft | 135 kts | 176° |
| 2026-04-28 19:16 | 45.37398 | 25.89138 | 5390 ft | 135 kts | 175° |
| 2026-04-28 19:17 | 45.36476 | 25.89285 | 5239 ft | 132 kts | 177° |
| 2026-04-28 19:17 | 45.35578 | 25.89427 | 5075 ft | 125 kts | 176° |
| 2026-04-28 19:17 | 45.34741 | 25.89562 | 4962 ft | 121 kts | 176° |
| 2026-04-28 19:17 | 45.33934 | 25.89693 | 4947 ft | 114 kts | 176° |
| 2026-04-28 19:18 | 45.33173 | 25.89821 | 4943 ft | 107 kts | 176° |
| 2026-04-28 19:18 | 45.32453 | 25.89938 | 4945 ft | 103 kts | 176° |
| 2026-04-28 19:18 | 45.31737 | 25.90054 | 4947 ft | 104 kts | 176° |
| 2026-04-28 19:18 | 45.31014 | 25.90170 | 4941 ft | 103 kts | 176° |
| 2026-04-28 19:19 | 45.30305 | 25.90285 | 4945 ft | 102 kts | 176° |
| 2026-04-28 19:19 | 45.29604 | 25.90399 | 4941 ft | 101 kts | 177° |
| 2026-04-28 19:19 | 45.28911 | 25.90511 | 4946 ft | 99 kts | 177° |
| 2026-04-28 19:19 | 45.28231 | 25.90619 | 4944 ft | 100 kts | 177° |
| 2026-04-28 19:20 | 45.27538 | 25.90731 | 4944 ft | 101 kts | 176° |
| 2026-04-28 19:20 | 45.26837 | 25.90844 | 4945 ft | 102 kts | 176° |
| 2026-04-28 19:20 | 45.26133 | 25.90955 | 4942 ft | 101 kts | 176° |
| 2026-04-28 19:20 | 45.25444 | 25.91066 | 4942 ft | 99 kts | 176° |
| 2026-04-28 19:21 | 45.24751 | 25.91177 | 4943 ft | 101 kts | 176° |
| 2026-04-28 19:21 | 45.24045 | 25.91289 | 4944 ft | 102 kts | 177° |
| 2026-04-28 19:21 | 45.23338 | 25.91403 | 4949 ft | 103 kts | 176° |
| 2026-04-28 19:21 | 45.22623 | 25.91516 | 4947 ft | 103 kts | 176° |
| 2026-04-28 19:22 | 45.21910 | 25.91630 | 4952 ft | 103 kts | 176° |
| 2026-04-28 19:22 | 45.21669 | 25.91669 | 4950 ft | 103 kts | 176° |
| 2026-04-28 19:22 | 45.20544 | 25.92114 | 4936 ft | 106 kts | 130° |
| 2026-04-28 19:22 | 45.20127 | 25.92964 | 4936 ft | 104 kts | 127° |
| 2026-04-28 19:23 | 45.19575 | 25.93554 | 4940 ft | 100 kts | 167° |
| 2026-04-28 19:23 | 45.18911 | 25.93870 | 4936 ft | 101 kts | 162° |
| 2026-04-28 19:23 | 45.18320 | 25.94376 | 4935 ft | 102 kts | 127° |
| 2026-04-28 19:23 | 45.17774 | 25.94888 | 4939 ft | 97 kts | 181° |
| 2026-04-28 19:24 | 45.17120 | 25.94712 | 4946 ft | 96 kts | 202° |
| 2026-04-28 19:24 | 45.16459 | 25.94417 | 4884 ft | 103 kts | 200° |
| 2026-04-28 19:24 | 45.15759 | 25.94122 | 4819 ft | 107 kts | 199° |
| 2026-04-28 19:24 | 45.15040 | 25.93827 | 4753 ft | 108 kts | 199° |
| 2026-04-28 19:25 | 45.14311 | 25.93533 | 4675 ft | 109 kts | 198° |
| 2026-04-28 19:25 | 45.13581 | 25.93241 | 4604 ft | 110 kts | 198° |
| 2026-04-28 19:25 | 45.12845 | 25.92947 | 4532 ft | 110 kts | 198° |
| 2026-04-28 19:25 | 45.12102 | 25.92652 | 4455 ft | 111 kts | 198° |
| 2026-04-28 19:26 | 45.11353 | 25.92354 | 4382 ft | 112 kts | 198° |
| 2026-04-28 19:26 | 45.10594 | 25.92052 | 4295 ft | 114 kts | 198° |
| 2026-04-28 19:26 | 45.09821 | 25.91744 | 4176 ft | 117 kts | 198° |
| 2026-04-28 19:26 | 45.09044 | 25.91435 | 4050 ft | 118 kts | 198° |
| 2026-04-28 19:27 | 45.08251 | 25.91121 | 3941 ft | 118 kts | 198° |
| 2026-04-28 19:27 | 45.07488 | 25.90820 | 3938 ft | 111 kts | 198° |
| 2026-04-28 19:27 | 45.06758 | 25.90533 | 3928 ft | 107 kts | 198° |
| 2026-04-28 19:27 | 45.06051 | 25.90255 | 3919 ft | 104 kts | 198° |
| 2026-04-28 19:28 | 45.05356 | 25.89981 | 3897 ft | 105 kts | 198° |
| 2026-04-28 19:28 | 45.04640 | 25.89697 | 3822 ft | 108 kts | 198° |
| 2026-04-28 19:28 | 45.03908 | 25.89406 | 3751 ft | 110 kts | 198° |
| 2026-04-28 19:28 | 45.03170 | 25.89113 | 3680 ft | 110 kts | 198° |
| 2026-04-28 19:29 | 45.02438 | 25.88824 | 3606 ft | 111 kts | 198° |
| 2026-04-28 19:29 | 45.02187 | 25.88724 | 3585 ft | 111 kts | 198° |
| 2026-04-28 19:29 | 45.00950 | 25.88235 | 3459 ft | 111 kts | 198° |
| 2026-04-28 19:29 | 45.00203 | 25.87940 | 3381 ft | 111 kts | 198° |
| 2026-04-28 19:30 | 44.99459 | 25.87646 | 3333 ft | 109 kts | 198° |
| 2026-04-28 19:30 | 44.98979 | 25.87458 | 3328 ft | 107 kts | 198° |
| 2026-04-28 19:30 | 44.98291 | 25.87189 | 3394 ft | 99 kts | 198° |
| 2026-04-28 19:30 | 44.97647 | 25.86937 | 3466 ft | 93 kts | 198° |
| 2026-04-28 19:31 | 44.97054 | 25.86707 | 3567 ft | 85 kts | 198° |
| 2026-04-28 19:31 | 44.96507 | 25.86494 | 3665 ft | 78 kts | 198° |
| 2026-04-28 19:31 | 44.95985 | 25.86290 | 3717 ft | 80 kts | 198° |
| 2026-04-28 19:31 | 44.95427 | 25.86068 | 3730 ft | 86 kts | 198° |
| 2026-04-28 19:32 | 44.94839 | 25.85835 | 3738 ft | 90 kts | 198° |
| 2026-04-28 19:32 | 44.94211 | 25.85584 | 3689 ft | 98 kts | 198° |
| 2026-04-28 19:32 | 44.93535 | 25.85315 | 3635 ft | 103 kts | 198° |
| 2026-04-28 19:32 | 44.92835 | 25.85037 | 3576 ft | 106 kts | 198° |
| 2026-04-28 19:33 | 44.92086 | 25.84942 | 3458 ft | 114 kts | 167° |
| 2026-04-28 19:33 | 44.91434 | 25.85566 | 3335 ft | 119 kts | 128° |
| 2026-04-28 19:33 | 44.91205 | 25.86687 | 3155 ft | 122 kts | 87° |
| 2026-04-28 19:33 | 44.91348 | 25.87859 | 2963 ft | 122 kts | 82° |
| 2026-04-28 19:34 | 44.91492 | 25.89038 | 2765 ft | 122 kts | 82° |
| 2026-04-28 19:34 | 44.91634 | 25.90221 | 2567 ft | 122 kts | 83° |
| 2026-04-28 19:34 | 44.91773 | 25.91393 | 2428 ft | 117 kts | 83° |
| 2026-04-28 19:34 | 44.91910 | 25.92529 | 2146 ft | 125 kts | 82° |
| 2026-04-28 19:35 | 44.92063 | 25.93855 | 1067 ft | 150 kts | 81° |
| 2026-04-28 19:35 | 44.92206 | 25.95171 | 795 ft | 120 kts | 78° |
| 2026-04-28 19:35 | 44.92345 | 25.96238 | 589 ft | 104 kts | 85° |
| 2026-04-28 19:35 | 44.92462 | 25.97042 | 572 ft | 52 kts | 60° |
| 2026-04-28 19:36 | 44.92739 | 25.97332 | 591 ft | 60 kts | 26° |
| 2026-04-28 19:36 | 44.93148 | 25.97488 | 747 ft | 65 kts | 338° |
| 2026-04-28 19:36 | 44.93345 | 25.96863 | 846 ft | 84 kts | 265° |
| 2026-04-28 19:36 | 44.93241 | 25.95983 | 1012 ft | 91 kts | 260° |
| 2026-04-28 19:37 | 44.93144 | 25.95053 | 1174 ft | 97 kts | 267° |
| 2026-04-28 19:37 | 44.93134 | 25.94404 | 1276 ft | 101 kts | 268° |
| 2026-04-28 19:37 | 44.93046 | 25.93077 | 1549 ft | 100 kts | 275° |
| 2026-04-28 19:37 | 44.92661 | 25.92487 | 1606 ft | 108 kts | 164° |
| 2026-04-28 19:38 | 44.91916 | 25.92851 | 1631 ft | 115 kts | 156° |
| 2026-04-28 19:38 | 44.91595 | 25.93777 | 1457 ft | 123 kts | 77° |
| 2026-04-28 19:38 | 44.92059 | 25.94808 | 881 ft | 125 kts | 54° |
| 2026-04-28 19:38 | 44.92303 | 25.95827 | 658 ft | 104 kts | 78° |
| 2026-04-28 19:39 | 44.92408 | 25.96704 | 566 ft | 67 kts | 81° |
| 2026-04-28 19:39 | 44.92469 | 25.97031 | 570 ft | 9 kts | 352° |
| 2026-04-28 19:39 | 44.92456 | 25.96961 | 570 ft | 14 kts | 237° |
| 2026-04-28 19:39 | 44.92408 | 25.96779 | 571 ft | 27 kts | 257° |
| 2026-04-28 19:40 | 44.92390 | 25.96582 | 567 ft | 0 kts | 313° |
| 2026-04-28 19:40 | 44.92410 | 25.96594 | 569 ft | 8 kts | 78° |
| 2026-04-28 19:40 | 44.92413 | 25.96685 | 572 ft | 10 kts | 84° |
| 2026-04-28 19:40 | 44.92403 | 25.96807 | 573 ft | 11 kts | 138° |
| 2026-04-28 19:41 | 44.92348 | 25.96900 | 569 ft | 14 kts | 128° |
| 2026-04-28 19:41 | 44.92322 | 25.97015 | 570 ft | 13 kts | 59° |
| 2026-04-28 19:41 | 44.92291 | 25.97019 | 571 ft | 5 kts | 252° |
| 2026-04-28 19:41 | 44.92287 | 25.96999 | 571 ft | 0 kts | 254° |
| 2026-04-28 19:42 | 44.92286 | 25.96965 | 571 ft | 1 kts | 260° |